DTW weather

Detroit Metropolitan Wayne County Airport
Detroit, Michigan, United States

Public forecast

Using degrees Fahrenheit for public forecast. Weather courtesy of forecast.io.

METAR (pilot weather report)

Retrieved 2018/05/23 05:53 UTC (49 minutes ago):

KDTW 230553Z 29004KT 7SM CLR 13/11 A3007 RMK AO2 SLP180 T01330111 10183 20133 53005

TAF (pilot weather forecast)

Retrieved 2018/05/23 06:24 UTC (18 minutes ago):

TAF KDTW 230522Z 2306/2412 33004KT P6SM SKC FM230900 VRB03KT 3SM BR SKC FM231300 34005KT P6SM SKC FM232200 04006KT P6SM SKC